createdAt,value
2023-04-16T00:00:43.171Z,21.90
2023-04-16T00:03:10.840Z,26.13
2023-04-16T00:05:38.867Z,23.73
2023-04-16T00:08:06.433Z,26.70
2023-04-16T00:10:35.560Z,23.77
2023-04-16T00:13:02.657Z,26.10
2023-04-16T00:15:30.368Z,25.73
2023-04-16T00:18:00.591Z,26.42
2023-04-16T00:20:28.040Z,28.75
2023-04-16T00:22:55.512Z,23.70
2023-04-16T00:25:23.228Z,23.70
2023-04-16T00:27:50.894Z,24.88
2023-04-16T00:30:18.410Z,25.48
2023-04-16T00:32:45.785Z,25.42
2023-04-16T00:35:13.457Z,30.90
2023-04-16T00:37:40.760Z,26.10
2023-04-16T00:40:08.705Z,27.10
2023-04-16T00:42:41.643Z,24.77
2023-04-16T00:45:11.595Z,28.45
2023-04-16T00:50:08.174Z,26.50
2023-04-16T00:52:35.930Z,29.05
2023-04-16T00:55:03.634Z,26.63
2023-04-16T00:57:31.063Z,27.52
2023-04-16T00:59:58.910Z,26.60
2023-04-16T01:02:26.693Z,31.15
2023-04-16T01:04:55.197Z,28.13
2023-04-16T01:07:22.708Z,25.60
2023-04-16T01:09:50.122Z,24.15
2023-04-16T01:12:17.311Z,25.45
2023-04-16T01:14:44.713Z,38.20
2023-04-16T01:17:12.240Z,28.98
2023-04-16T01:19:39.559Z,25.60
2023-04-16T01:22:07.393Z,31.35
2023-04-16T01:24:35.681Z,29.67
2023-04-16T01:27:02.960Z,27.37
2023-04-16T01:29:30.159Z,24.42
2023-04-16T01:31:59.165Z,29.55
2023-04-16T01:34:30.118Z,33.55
2023-04-16T01:36:57.461Z,24.52
2023-04-16T01:39:24.663Z,25.05
2023-04-16T01:41:53.119Z,21.48
2023-04-16T01:44:21.755Z,27.30
2023-04-16T01:46:52.176Z,25.92
2023-04-16T01:49:19.435Z,27.30
2023-04-16T01:51:46.743Z,31.52
2023-04-16T01:54:13.977Z,24.10
2023-04-16T01:56:41.117Z,24.40
2023-04-16T01:59:08.649Z,22.90
2023-04-16T02:01:46.619Z,22.23
2023-04-16T02:04:13.937Z,20.42
2023-04-16T02:06:41.628Z,23.27
2023-04-16T02:09:09.204Z,26.83
2023-04-16T02:14:05.796Z,26.38
2023-04-16T02:16:33.140Z,23.30
2023-04-16T02:19:09.916Z,24.48
2023-04-16T02:21:38.716Z,22.67
2023-04-16T02:24:06.584Z,21.10
2023-04-16T02:26:35.061Z,23.65
2023-04-16T02:29:08.096Z,22.50
2023-04-16T02:31:41.663Z,21.17
2023-04-16T02:34:12.823Z,21.25
2023-04-16T02:36:41.907Z,22.58
2023-04-16T02:39:09.427Z,18.63
2023-04-16T02:41:38.511Z,19.30
2023-04-16T02:44:06.217Z,18.27
2023-04-16T02:46:33.798Z,20.40
2023-04-16T02:49:01.424Z,22.27
2023-04-16T02:51:30.076Z,27.48
2023-04-16T02:53:57.303Z,22.00
2023-04-16T02:56:24.523Z,20.42
2023-04-16T02:58:52.475Z,19.98
2023-04-16T03:01:19.787Z,21.45
2023-04-16T03:03:47.517Z,26.48
2023-04-16T03:06:15.388Z,25.05
2023-04-16T03:08:42.795Z,24.13
2023-04-16T03:11:10.036Z,24.13
2023-04-16T03:13:37.231Z,24.80
2023-04-16T03:16:04.643Z,22.88
2023-04-16T03:18:31.988Z,20.60
2023-04-16T03:20:59.475Z,22.90
2023-04-16T03:26:23.516Z,24.40
2023-04-16T03:28:51.326Z,24.40
2023-04-16T03:31:18.801Z,24.88
2023-04-16T03:33:46.739Z,24.17
2023-04-16T03:36:14.580Z,26.38
2023-04-16T03:38:42.600Z,25.63
2023-04-16T03:41:10.040Z,22.67
2023-04-16T03:43:37.728Z,24.88
2023-04-16T03:46:05.849Z,25.35
2023-04-16T03:48:33.584Z,21.38
2023-04-16T03:51:01.064Z,26.45
2023-04-16T03:53:29.168Z,26.50
2023-04-16T03:55:56.580Z,30.88
2023-04-16T03:58:24.368Z,25.20
2023-04-16T04:00:56.172Z,26.00
2023-04-16T04:03:26.170Z,23.75
2023-04-16T04:05:54.969Z,30.55
2023-04-16T04:08:28.707Z,29.85
2023-04-16T04:10:55.910Z,34.95
2023-04-16T04:13:24.629Z,26.60
2023-04-16T04:15:52.675Z,32.10
2023-04-16T04:18:21.377Z,36.10
2023-04-16T04:20:49.020Z,28.27
2023-04-16T04:23:19.487Z,28.13
2023-04-16T04:25:48.057Z,30.97
2023-04-16T04:28:19.450Z,30.15
2023-04-16T04:31:01.979Z,34.45
2023-04-16T04:33:33.306Z,32.03
2023-04-16T04:36:12.080Z,27.15
2023-04-16T04:38:51.824Z,29.65
2023-04-16T04:41:27.228Z,27.73
2023-04-16T04:44:05.304Z,35.75
2023-04-16T04:46:45.341Z,33.55
2023-04-16T04:49:18.799Z,27.40
2023-04-16T04:51:56.938Z,33.42
2023-04-16T04:54:37.125Z,30.63
2023-04-16T04:57:11.864Z,32.15
2023-04-16T04:59:47.863Z,28.60
2023-04-16T05:02:27.944Z,33.45
2023-04-16T05:05:03.967Z,32.40
2023-04-16T05:07:40.254Z,34.47
2023-04-16T05:10:10.130Z,29.00
2023-04-16T05:12:41.688Z,29.17
2023-04-16T05:15:14.687Z,30.38
2023-04-16T05:17:45.815Z,29.40
2023-04-16T05:20:32.293Z,32.28
2023-04-16T05:23:12.565Z,34.38
2023-04-16T05:25:48.582Z,28.58
2023-04-16T05:28:27.598Z,32.40
2023-04-16T05:31:06.558Z,33.88
2023-04-16T05:33:48.347Z,33.22
2023-04-16T05:36:20.033Z,29.13
2023-04-16T05:39:02.698Z,32.25
2023-04-16T05:41:38.363Z,24.85
2023-04-16T05:44:13.397Z,30.65
2023-04-16T05:46:50.585Z,30.45
2023-04-16T05:49:37.832Z,28.35
2023-04-16T05:52:07.691Z,25.95
2023-04-16T05:57:24.811Z,31.30
2023-04-16T05:59:59.363Z,32.15
2023-04-16T06:02:41.578Z,31.90
2023-04-16T06:05:20.949Z,35.78
2023-04-16T06:07:57.697Z,38.35
2023-04-16T06:10:38.846Z,42.13
2023-04-16T06:13:12.866Z,44.58
2023-04-16T06:15:54.169Z,35.88
2023-04-16T06:18:38.363Z,46.92
2023-04-16T06:21:20.967Z,53.75
2023-04-16T06:23:57.851Z,50.63
2023-04-16T06:26:30.192Z,49.65
2023-04-16T06:29:07.767Z,56.30
2023-04-16T06:31:55.909Z,49.28
2023-04-16T06:34:32.767Z,59.28
2023-04-16T06:37:18.775Z,55.70
2023-04-16T06:39:54.374Z,58.45
2023-04-16T06:45:17.512Z,60.60
2023-04-16T06:47:52.837Z,59.83
2023-04-16T06:50:47.996Z,67.72
2023-04-16T06:53:22.460Z,58.20
2023-04-16T06:55:58.496Z,60.80
2023-04-16T07:01:27.160Z,63.83
2023-04-16T07:04:30.991Z,54.28
2023-04-16T07:06:59.120Z,66.80
2023-04-16T07:09:39.749Z,79.47
2023-04-16T07:12:13.169Z,61.17
2023-04-16T07:14:47.794Z,63.50
2023-04-16T07:17:19.942Z,60.42
2023-04-16T07:19:54.972Z,65.43
2023-04-16T07:22:29.078Z,64.97
2023-04-16T07:24:58.031Z,63.53
2023-04-16T07:27:28.427Z,63.13
2023-04-16T07:30:00.182Z,61.22
2023-04-16T07:32:37.155Z,79.80
2023-04-16T07:35:14.135Z,62.25
2023-04-16T07:37:43.549Z,63.08
2023-04-16T07:40:25.548Z,70.82
2023-04-16T07:43:02.611Z,58.70
2023-04-16T07:45:36.542Z,66.53
2023-04-16T07:48:12.634Z,68.30
2023-04-16T07:50:46.162Z,64.85
2023-04-16T07:53:26.328Z,62.20
2023-04-16T07:55:57.060Z,77.20
2023-04-16T07:58:25.537Z,46.42
2023-04-16T08:01:03.671Z,56.92
2023-04-16T08:03:41.001Z,60.53
2023-04-16T08:06:32.876Z,59.67
2023-04-16T08:09:06.070Z,44.53
2023-04-16T08:11:44.292Z,53.25
2023-04-16T08:14:17.889Z,63.05
2023-04-16T08:16:51.516Z,46.72
2023-04-16T08:19:22.599Z,45.20
2023-04-16T08:21:53.857Z,46.95
2023-04-16T08:24:27.836Z,56.95
2023-04-16T08:27:19.128Z,48.72
2023-04-16T08:29:57.936Z,51.42
2023-04-16T08:32:34.294Z,50.45
2023-04-16T08:35:18.043Z,53.78
2023-04-16T08:37:52.629Z,46.10
2023-04-16T08:40:36.541Z,50.70
2023-04-16T08:43:23.987Z,41.58
2023-04-16T08:46:14.343Z,54.42
2023-04-16T08:49:09.655Z,52.13
2023-04-16T08:52:18.982Z,50.75
2023-04-16T08:55:17.964Z,50.23
2023-04-16T08:58:03.764Z,49.03
2023-04-16T09:00:49.442Z,53.47
2023-04-16T09:03:27.439Z,53.30
2023-04-16T09:06:04.837Z,49.85
2023-04-16T09:08:38.482Z,49.15
2023-04-16T09:11:24.620Z,44.85
2023-04-16T09:14:08.564Z,47.38
2023-04-16T09:16:55.144Z,39.65
2023-04-16T09:19:37.578Z,45.28
2023-04-16T09:22:17.516Z,37.33
2023-04-16T09:24:51.558Z,44.42
2023-04-16T09:27:26.005Z,41.80
2023-04-16T09:29:56.804Z,44.65
2023-04-16T09:32:32.625Z,41.63
2023-04-16T09:35:12.725Z,39.05
2023-04-16T09:37:45.710Z,41.55
2023-04-16T09:40:32.828Z,41.50
2023-04-16T09:43:16.486Z,37.47
2023-04-16T09:46:00.106Z,41.83
2023-04-16T09:48:34.711Z,43.95
2023-04-16T09:51:02.314Z,43.38
2023-04-16T09:53:31.881Z,43.45
2023-04-16T09:56:05.396Z,44.85
2023-04-16T09:58:36.354Z,50.15
2023-04-16T10:01:12.925Z,52.92
2023-04-16T10:03:41.321Z,45.95
2023-04-16T10:06:20.650Z,42.75
2023-04-16T10:08:51.334Z,46.53
2023-04-16T10:11:20.961Z,49.13
2023-04-16T10:13:49.139Z,42.97
2023-04-16T10:16:18.126Z,44.15
2023-04-16T10:21:16.350Z,40.50
2023-04-16T10:23:44.547Z,46.13
2023-04-16T10:26:12.081Z,52.53
2023-04-16T10:28:40.779Z,45.90
2023-04-16T10:31:10.864Z,53.55
2023-04-16T10:33:41.494Z,48.35
2023-04-16T10:36:14.765Z,47.97
2023-04-16T10:38:54.973Z,50.25
2023-04-16T10:41:23.833Z,43.30
2023-04-16T10:43:52.758Z,43.88
2023-04-16T10:46:31.014Z,37.97
2023-04-16T10:49:35.707Z,42.40
2023-04-16T10:52:19.330Z,44.33
2023-04-16T10:54:50.563Z,40.67
2023-04-16T10:57:20.617Z,47.85
2023-04-16T10:59:49.433Z,42.53
2023-04-16T11:02:19.413Z,44.17
2023-04-16T11:04:50.133Z,42.17
2023-04-16T11:07:21.738Z,42.40
2023-04-16T11:10:04.081Z,36.00
2023-04-16T11:12:47.081Z,42.65
2023-04-16T11:15:19.526Z,40.08
2023-04-16T11:17:52.677Z,35.60
2023-04-16T11:20:27.046Z,40.35
2023-04-16T11:22:57.942Z,34.38
2023-04-16T11:25:31.618Z,36.30
2023-04-16T11:27:59.360Z,38.33
2023-04-16T11:30:37.695Z,32.75
2023-04-16T11:33:12.561Z,30.37
2023-04-16T11:35:41.328Z,31.92
2023-04-16T11:38:09.065Z,32.13
2023-04-16T11:40:36.588Z,28.85
2023-04-16T11:43:15.867Z,29.50
2023-04-16T11:48:55.955Z,31.27
2023-04-16T11:51:30.294Z,29.83
2023-04-16T11:53:58.718Z,34.70
2023-04-16T11:56:32.208Z,31.33
2023-04-16T11:59:17.042Z,29.40
2023-04-16T12:01:57.565Z,21.20
2023-04-16T12:04:29.268Z,25.00
2023-04-16T12:07:12.967Z,21.20
2023-04-16T12:09:43.350Z,21.77
2023-04-16T12:12:32.400Z,20.65
2023-04-16T12:15:03.726Z,23.65
2023-04-16T12:17:36.835Z,20.95
2023-04-16T12:20:15.749Z,18.23
2023-04-16T12:22:49.847Z,19.15
2023-04-16T12:25:18.444Z,19.42
2023-04-16T12:27:55.962Z,20.73
2023-04-16T12:30:29.564Z,15.45
2023-04-16T12:33:17.827Z,19.70
2023-04-16T12:35:45.879Z,16.05
2023-04-16T12:38:15.290Z,18.02
2023-04-16T12:40:43.425Z,16.38
2023-04-16T12:43:14.005Z,16.27
2023-04-16T12:45:41.469Z,15.73
2023-04-16T12:48:08.708Z,14.90
2023-04-16T12:50:36.250Z,15.38
2023-04-16T12:53:04.129Z,14.38
2023-04-16T12:55:31.368Z,14.02
2023-04-16T12:57:58.639Z,17.00
2023-04-16T13:00:25.924Z,14.25
2023-04-16T13:02:53.801Z,16.10
2023-04-16T13:05:21.623Z,12.65
2023-04-16T13:07:48.968Z,14.05
2023-04-16T13:10:16.673Z,11.27
2023-04-16T13:12:44.527Z,12.55
2023-04-16T13:15:12.163Z,11.77
2023-04-16T13:17:39.621Z,14.35
2023-04-16T13:20:07.907Z,13.73
2023-04-16T13:22:35.391Z,16.52
2023-04-16T13:25:03.126Z,14.35
2023-04-16T13:27:32.084Z,11.52
2023-04-16T13:29:59.385Z,12.10
2023-04-16T13:32:27.124Z,15.65
2023-04-16T13:34:55.162Z,16.25
2023-04-16T13:37:22.799Z,15.50
2023-04-16T13:39:50.486Z,13.85
2023-04-16T13:42:17.725Z,15.00
2023-04-16T13:44:48.777Z,15.23
2023-04-16T13:47:16.690Z,13.23
2023-04-16T13:49:44.183Z,13.75
2023-04-16T13:52:11.753Z,13.48
2023-04-16T13:54:40.306Z,18.27
2023-04-16T13:57:07.627Z,18.80
2023-04-16T13:59:34.974Z,15.10
2023-04-16T14:02:02.885Z,21.85
2023-04-16T14:04:31.334Z,17.08
2023-04-16T14:06:58.792Z,14.65
2023-04-16T14:09:26.426Z,17.08
2023-04-16T14:11:53.867Z,26.17
2023-04-16T14:14:21.118Z,20.15
2023-04-16T14:16:48.581Z,20.25
2023-04-16T14:19:15.964Z,20.45
2023-04-16T14:21:43.074Z,17.23
2023-04-16T14:24:10.548Z,19.73
2023-04-16T14:26:37.955Z,19.40
2023-04-16T14:29:06.281Z,20.13
2023-04-16T14:31:39.779Z,21.40
2023-04-16T14:34:12.503Z,18.73
2023-04-16T14:36:40.909Z,19.58
2023-04-16T14:39:08.965Z,19.88
2023-04-16T14:41:36.664Z,22.55
2023-04-16T14:44:06.045Z,20.73
2023-04-16T14:49:06.395Z,21.55
2023-04-16T14:51:33.968Z,17.75
2023-04-16T14:54:01.638Z,22.67
2023-04-16T14:56:30.743Z,20.98
2023-04-16T14:58:58.392Z,20.77
2023-04-16T15:01:26.161Z,21.35
2023-04-16T15:03:56.559Z,22.35
2023-04-16T15:06:26.448Z,24.48
2023-04-16T15:08:53.544Z,25.67
2023-04-16T15:11:20.797Z,22.48
2023-04-16T15:13:47.939Z,25.85
2023-04-16T15:16:15.490Z,29.05
2023-04-16T15:18:43.211Z,37.38
2023-04-16T15:21:12.451Z,31.33
2023-04-16T15:24:06.390Z,41.15
2023-04-16T15:26:33.786Z,44.05
2023-04-16T15:29:06.611Z,34.22
2023-04-16T15:31:44.670Z,36.05
2023-04-16T15:34:13.325Z,35.75
2023-04-16T15:36:41.401Z,30.20
2023-04-16T15:39:09.793Z,31.65
2023-04-16T15:41:50.254Z,31.42
2023-04-16T15:44:24.619Z,35.00
2023-04-16T15:47:04.191Z,31.92
2023-04-16T15:49:36.338Z,34.55
2023-04-16T15:52:04.256Z,37.10
2023-04-16T15:54:32.116Z,31.90
2023-04-16T15:56:59.627Z,32.25
2023-04-16T15:59:27.314Z,37.92
2023-04-16T16:01:55.122Z,32.78
2023-04-16T16:04:23.335Z,35.33
2023-04-16T16:06:51.260Z,34.40
2023-04-16T16:09:25.624Z,34.17
2023-04-16T16:11:54.548Z,42.47
2023-04-16T16:16:51.285Z,36.15
2023-04-16T16:19:18.745Z,35.00
2023-04-16T16:21:45.999Z,34.35
2023-04-16T16:24:13.990Z,39.65
2023-04-16T16:26:41.407Z,50.58
2023-04-16T16:29:09.214Z,38.03
2023-04-16T16:31:36.577Z,38.28
2023-04-16T16:34:19.974Z,38.78
2023-04-16T16:36:48.973Z,34.90
2023-04-16T16:39:16.560Z,39.92
2023-04-16T16:41:45.005Z,45.88
2023-04-16T16:44:12.164Z,44.67
2023-04-16T16:46:39.625Z,41.85
2023-04-16T16:49:09.546Z,46.35
2023-04-16T16:51:37.486Z,43.25
2023-04-16T16:54:06.882Z,53.30
2023-04-16T16:56:40.212Z,54.13
2023-04-16T16:59:08.920Z,59.90
2023-04-16T17:01:39.226Z,52.75
2023-04-16T17:04:08.027Z,50.10
2023-04-16T17:06:35.776Z,50.22
2023-04-16T17:09:03.923Z,51.53
2023-04-16T17:11:31.310Z,48.47
2023-04-16T17:13:58.527Z,47.92
2023-04-16T17:16:26.302Z,49.47
2023-04-16T17:18:53.732Z,49.80
2023-04-16T17:21:21.594Z,45.50
2023-04-16T17:23:49.667Z,48.38
2023-04-16T17:26:24.271Z,46.03
2023-04-16T17:28:51.477Z,57.00
2023-04-16T17:31:18.830Z,52.28
2023-04-16T17:33:46.365Z,49.05
2023-04-16T17:36:14.057Z,50.60
2023-04-16T17:38:44.262Z,51.17
2023-04-16T17:41:12.591Z,45.72
2023-04-16T17:43:39.801Z,48.95
2023-04-16T17:46:11.898Z,45.97
2023-04-16T17:48:39.450Z,42.63
2023-04-16T17:51:16.505Z,51.00
2023-04-16T17:53:44.682Z,49.33
2023-04-16T17:56:13.591Z,47.20
2023-04-16T17:58:40.921Z,45.08
2023-04-16T18:01:08.423Z,47.60
2023-04-16T18:03:37.135Z,47.28
2023-04-16T18:06:05.782Z,50.45
2023-04-16T18:08:35.060Z,52.53
2023-04-16T18:11:08.394Z,54.50
2023-04-16T18:13:35.882Z,53.33
2023-04-16T18:16:03.559Z,53.30
2023-04-16T18:18:33.304Z,57.55
2023-04-16T18:21:00.495Z,57.90
2023-04-16T18:23:27.836Z,51.63
2023-04-16T18:25:55.018Z,52.92
2023-04-16T18:28:22.197Z,50.90
2023-04-16T18:30:49.656Z,54.45
2023-04-16T18:33:48.789Z,48.15
2023-04-16T18:36:07.618Z,55.05
2023-04-16T18:38:34.804Z,48.97
2023-04-16T18:41:02.093Z,50.13
2023-04-16T18:43:29.190Z,55.63
2023-04-16T18:46:01.443Z,53.25
2023-04-16T18:48:28.905Z,45.00
2023-04-16T18:50:58.058Z,49.67
2023-04-16T18:55:55.672Z,44.83
2023-04-16T18:58:22.881Z,44.97
2023-04-16T19:00:58.557Z,45.53
2023-04-16T19:03:27.896Z,52.28
2023-04-16T19:05:55.565Z,49.85
2023-04-16T19:08:22.810Z,47.42
2023-04-16T19:10:50.814Z,49.45
2023-04-16T19:13:18.317Z,48.10
2023-04-16T19:15:48.930Z,58.80
2023-04-16T19:18:16.678Z,51.83
2023-04-16T19:20:43.848Z,49.85
2023-04-16T19:23:11.532Z,44.80
2023-04-16T19:25:40.003Z,47.92
2023-04-16T19:28:07.388Z,49.80
2023-04-16T19:30:34.596Z,51.15
2023-04-16T19:33:01.863Z,51.92
2023-04-16T19:35:30.067Z,47.72
2023-04-16T19:37:58.622Z,45.10
2023-04-16T19:40:27.646Z,42.75
2023-04-16T19:42:54.958Z,53.75
2023-04-16T19:45:25.990Z,47.17
2023-04-16T19:47:53.630Z,40.83
2023-04-16T19:50:21.077Z,42.08
2023-04-16T19:52:48.207Z,37.55
2023-04-16T19:55:15.555Z,40.53
2023-04-16T19:57:42.796Z,35.30
2023-04-16T20:00:11.810Z,35.78
2023-04-16T20:02:42.112Z,39.70
2023-04-16T20:05:09.730Z,42.55
2023-04-16T20:07:36.868Z,35.35
2023-04-16T20:10:04.750Z,42.22
2023-04-16T20:12:32.142Z,49.50
2023-04-16T20:14:59.722Z,42.55
2023-04-16T20:17:34.546Z,35.72
2023-04-16T20:20:15.482Z,42.92
2023-04-16T20:22:46.140Z,36.03
2023-04-16T20:25:14.452Z,41.25
2023-04-16T20:27:42.941Z,41.80
2023-04-16T20:30:11.291Z,36.50
2023-04-16T20:32:38.482Z,37.47
2023-04-16T20:35:10.399Z,46.42
2023-04-16T20:37:38.903Z,46.67
2023-04-16T20:40:09.392Z,45.72
2023-04-16T20:42:36.967Z,42.60
2023-04-16T20:45:04.762Z,38.85
2023-04-16T20:47:34.656Z,41.50
2023-04-16T20:50:03.668Z,38.50
2023-04-16T20:52:30.793Z,39.90
2023-04-16T20:54:58.053Z,43.63
2023-04-16T20:57:26.021Z,38.55
2023-04-16T20:59:53.106Z,39.42
2023-04-16T21:02:20.708Z,36.67
2023-04-16T21:04:48.176Z,41.92
2023-04-16T21:07:15.774Z,39.05
2023-04-16T21:09:42.838Z,39.85
2023-04-16T21:12:09.924Z,42.08
2023-04-16T21:14:39.611Z,38.15
2023-04-16T21:17:06.794Z,40.70
2023-04-16T21:19:36.933Z,37.92
2023-04-16T21:22:04.341Z,35.40
2023-04-16T21:24:32.680Z,39.83
2023-04-16T21:26:59.855Z,32.58
2023-04-16T21:29:27.251Z,34.40
2023-04-16T21:32:01.823Z,33.28
2023-04-16T21:34:29.440Z,33.50
2023-04-16T21:36:56.553Z,33.40
2023-04-16T21:39:25.996Z,30.23
2023-04-16T21:41:53.085Z,34.17
2023-04-16T21:44:21.047Z,31.60
2023-04-16T21:46:48.246Z,29.60
2023-04-16T21:49:15.619Z,30.13
2023-04-16T21:51:42.974Z,29.35
2023-04-16T21:54:10.201Z,27.77
2023-04-16T21:56:37.329Z,26.42
2023-04-16T21:59:04.481Z,28.58
2023-04-16T22:01:31.818Z,26.42
2023-04-16T22:03:59.117Z,29.83
2023-04-16T22:06:27.168Z,31.05
2023-04-16T22:08:54.749Z,28.45
2023-04-16T22:11:22.625Z,26.95
2023-04-16T22:13:49.792Z,30.63
2023-04-16T22:16:17.536Z,30.98
2023-04-16T22:18:46.353Z,30.98
2023-04-16T22:21:13.497Z,35.10
2023-04-16T22:23:40.677Z,30.50
2023-04-16T22:26:08.988Z,33.40
2023-04-16T22:28:36.232Z,36.20
2023-04-16T22:31:03.475Z,34.00
2023-04-16T22:33:31.051Z,33.25
2023-04-16T22:36:00.556Z,33.00
2023-04-16T22:38:28.691Z,33.10
2023-04-16T22:40:56.267Z,32.08
2023-04-16T22:43:23.456Z,29.63
2023-04-16T22:46:00.927Z,31.13
2023-04-16T22:48:28.231Z,32.50
2023-04-16T22:50:55.818Z,33.55
2023-04-16T22:53:23.366Z,33.03
2023-04-16T22:55:51.067Z,30.67
2023-04-16T22:58:18.194Z,31.77
2023-04-16T23:00:47.923Z,31.95
2023-04-16T23:03:15.888Z,32.53
2023-04-16T23:05:43.633Z,32.03
2023-04-16T23:08:11.014Z,29.58
2023-04-16T23:10:38.091Z,29.83
2023-04-16T23:13:05.209Z,29.33
2023-04-16T23:15:32.532Z,32.88
2023-04-16T23:18:00.317Z,30.77
2023-04-16T23:20:29.502Z,31.58
2023-04-16T23:25:25.501Z,27.88
2023-04-16T23:27:52.918Z,31.90
2023-04-16T23:30:20.284Z,29.23
2023-04-16T23:32:47.455Z,30.10
2023-04-16T23:35:20.397Z,31.13
2023-04-16T23:37:47.773Z,35.80
2023-04-16T23:40:15.925Z,30.65
2023-04-16T23:42:43.507Z,34.30
2023-04-16T23:45:11.140Z,28.45
2023-04-16T23:47:38.791Z,31.45
2023-04-16T23:50:07.631Z,32.15
2023-04-16T23:52:34.914Z,35.97
2023-04-16T23:55:02.501Z,28.17
2023-04-16T23:57:29.859Z,30.23
2023-04-16T23:59:56.969Z,27.75
